sensor_id;sensor_type;location;lat;lon;timestamp;P1;durP1;ratioP1;P2;durP2;ratioP2
22733;SDS011;11534;51.994;5.692;2023-05-10T00:00:56;1.30;;;1.13;;
22733;SDS011;11534;51.994;5.692;2023-05-10T00:03:22;0.98;;;0.98;;
22733;SDS011;11534;51.994;5.692;2023-05-10T00:05:48;1.85;;;1.70;;
22733;SDS011;11534;51.994;5.692;2023-05-10T00:08:14;1.08;;;1.00;;
22733;SDS011;11534;51.994;5.692;2023-05-10T00:10:39;1.02;;;0.90;;
22733;SDS011;11534;51.994;5.692;2023-05-10T00:13:06;1.42;;;1.33;;
22733;SDS011;11534;51.994;5.692;2023-05-10T00:15:31;1.60;;;1.50;;
22733;SDS011;11534;51.994;5.692;2023-05-10T00:17:57;0.75;;;0.75;;
22733;SDS011;11534;51.994;5.692;2023-05-10T00:20:23;1.33;;;1.20;;
22733;SDS011;11534;51.994;5.692;2023-05-10T00:22:48;1.65;;;1.33;;
22733;SDS011;11534;51.994;5.692;2023-05-10T00:25:14;2.10;;;1.90;;
22733;SDS011;11534;51.994;5.692;2023-05-10T00:27:39;1.25;;;1.13;;
22733;SDS011;11534;51.994;5.692;2023-05-10T00:30:05;1.67;;;1.48;;
22733;SDS011;11534;51.994;5.692;2023-05-10T00:32:31;1.58;;;1.48;;
22733;SDS011;11534;51.994;5.692;2023-05-10T00:34:57;1.45;;;1.23;;
22733;SDS011;11534;51.994;5.692;2023-05-10T00:37:23;1.63;;;1.35;;
22733;SDS011;11534;51.994;5.692;2023-05-10T00:39:49;1.65;;;1.55;;
22733;SDS011;11534;51.994;5.692;2023-05-10T00:42:14;1.17;;;1.08;;
22733;SDS011;11534;51.994;5.692;2023-05-10T00:44:40;1.70;;;1.60;;
22733;SDS011;11534;51.994;5.692;2023-05-10T00:47:06;1.30;;;1.20;;
22733;SDS011;11534;51.994;5.692;2023-05-10T00:49:32;1.40;;;1.30;;
22733;SDS011;11534;51.994;5.692;2023-05-10T00:51:58;1.00;;;0.90;;
22733;SDS011;11534;51.994;5.692;2023-05-10T00:54:23;1.40;;;1.30;;
22733;SDS011;11534;51.994;5.692;2023-05-10T00:56:49;1.20;;;1.10;;
22733;SDS011;11534;51.994;5.692;2023-05-10T00:59:15;2.10;;;1.88;;
22733;SDS011;11534;51.994;5.692;2023-05-10T01:01:42;1.42;;;1.25;;
22733;SDS011;11534;51.994;5.692;2023-05-10T01:04:11;2.00;;;1.55;;
22733;SDS011;11534;51.994;5.692;2023-05-10T01:06:38;1.63;;;1.38;;
22733;SDS011;11534;51.994;5.692;2023-05-10T01:09:07;1.02;;;1.02;;
22733;SDS011;11534;51.994;5.692;2023-05-10T01:11:36;1.27;;;1.17;;
22733;SDS011;11534;51.994;5.692;2023-05-10T01:14:04;1.77;;;1.67;;
22733;SDS011;11534;51.994;5.692;2023-05-10T01:16:32;1.55;;;1.42;;
22733;SDS011;11534;51.994;5.692;2023-05-10T01:19:01;1.77;;;1.65;;
22733;SDS011;11534;51.994;5.692;2023-05-10T01:34:34;1.73;;;1.63;;
22733;SDS011;11534;51.994;5.692;2023-05-10T01:37:09;1.60;;;1.50;;
22733;SDS011;11534;51.994;5.692;2023-05-10T01:39:51;1.52;;;1.42;;
22733;SDS011;11534;51.994;5.692;2023-05-10T01:42:40;1.50;;;1.17;;
22733;SDS011;11534;51.994;5.692;2023-05-10T01:48:01;1.33;;;1.25;;
22733;SDS011;11534;51.994;5.692;2023-05-10T01:50:34;1.10;;;1.00;;
22733;SDS011;11534;51.994;5.692;2023-05-10T01:53:01;1.42;;;1.33;;
22733;SDS011;11534;51.994;5.692;2023-05-10T01:55:32;2.47;;;2.28;;
22733;SDS011;11534;51.994;5.692;2023-05-10T01:58:08;1.35;;;1.25;;
22733;SDS011;11534;51.994;5.692;2023-05-10T02:00:40;2.38;;;1.65;;
22733;SDS011;11534;51.994;5.692;2023-05-10T02:03:11;2.30;;;1.67;;
22733;SDS011;11534;51.994;5.692;2023-05-10T02:05:39;1.98;;;1.80;;
22733;SDS011;11534;51.994;5.692;2023-05-10T02:08:06;1.05;;;1.02;;
22733;SDS011;11534;51.994;5.692;2023-05-10T02:10:35;1.55;;;1.40;;
22733;SDS011;11534;51.994;5.692;2023-05-10T02:13:03;1.52;;;1.42;;
22733;SDS011;11534;51.994;5.692;2023-05-10T02:15:32;1.58;;;1.48;;
22733;SDS011;11534;51.994;5.692;2023-05-10T02:17:58;1.75;;;1.65;;
22733;SDS011;11534;51.994;5.692;2023-05-10T02:20:27;2.08;;;1.88;;
22733;SDS011;11534;51.994;5.692;2023-05-10T02:22:54;2.15;;;1.95;;
22733;SDS011;11534;51.994;5.692;2023-05-10T02:25:21;2.03;;;1.80;;
22733;SDS011;11534;51.994;5.692;2023-05-10T02:27:48;1.25;;;1.15;;
22733;SDS011;11534;51.994;5.692;2023-05-10T02:30:14;1.00;;;1.00;;
22733;SDS011;11534;51.994;5.692;2023-05-10T02:32:41;1.25;;;1.17;;
22733;SDS011;11534;51.994;5.692;2023-05-10T02:35:08;1.90;;;1.65;;
22733;SDS011;11534;51.994;5.692;2023-05-10T02:37:35;1.65;;;1.52;;
22733;SDS011;11534;51.994;5.692;2023-05-10T02:40:02;1.48;;;1.38;;
22733;SDS011;11534;51.994;5.692;2023-05-10T02:42:31;1.88;;;1.38;;
22733;SDS011;11534;51.994;5.692;2023-05-10T02:45:01;1.48;;;1.38;;
22733;SDS011;11534;51.994;5.692;2023-05-10T02:47:30;1.02;;;1.00;;
22733;SDS011;11534;51.994;5.692;2023-05-10T02:49:56;1.83;;;1.55;;
22733;SDS011;11534;51.994;5.692;2023-05-10T02:52:24;1.65;;;1.55;;
22733;SDS011;11534;51.994;5.692;2023-05-10T02:54:54;1.38;;;1.27;;
22733;SDS011;11534;51.994;5.692;2023-05-10T02:57:25;1.95;;;1.85;;
22733;SDS011;11534;51.994;5.692;2023-05-10T02:59:53;1.92;;;1.20;;
22733;SDS011;11534;51.994;5.692;2023-05-10T03:02:20;1.20;;;1.10;;
22733;SDS011;11534;51.994;5.692;2023-05-10T03:04:46;1.88;;;1.77;;
22733;SDS011;11534;51.994;5.692;2023-05-10T03:07:11;0.93;;;0.93;;
22733;SDS011;11534;51.994;5.692;2023-05-10T03:09:38;1.65;;;1.55;;
22733;SDS011;11534;51.994;5.692;2023-05-10T03:12:11;2.05;;;1.88;;
22733;SDS011;11534;51.994;5.692;2023-05-10T03:17:52;1.50;;;1.40;;
22733;SDS011;11534;51.994;5.692;2023-05-10T03:20:25;2.00;;;1.90;;
22733;SDS011;11534;51.994;5.692;2023-05-10T03:23:00;1.50;;;1.40;;
22733;SDS011;11534;51.994;5.692;2023-05-10T03:25:32;0.75;;;0.75;;
22733;SDS011;11534;51.994;5.692;2023-05-10T03:28:00;1.45;;;1.23;;
22733;SDS011;11534;51.994;5.692;2023-05-10T03:30:28;1.20;;;1.10;;
22733;SDS011;11534;51.994;5.692;2023-05-10T03:32:54;2.03;;;1.90;;
22733;SDS011;11534;51.994;5.692;2023-05-10T03:35:20;0.77;;;0.77;;
22733;SDS011;11534;51.994;5.692;2023-05-10T03:37:45;1.98;;;1.77;;
22733;SDS011;11534;51.994;5.692;2023-05-10T03:40:11;0.77;;;0.75;;
22733;SDS011;11534;51.994;5.692;2023-05-10T03:42:38;1.60;;;1.50;;
22733;SDS011;11534;51.994;5.692;2023-05-10T03:45:04;0.70;;;0.70;;
22733;SDS011;11534;51.994;5.692;2023-05-10T03:47:30;1.23;;;1.10;;
22733;SDS011;11534;51.994;5.692;2023-05-10T03:49:56;1.83;;;1.73;;
22733;SDS011;11534;51.994;5.692;2023-05-10T03:52:22;1.40;;;1.30;;
22733;SDS011;11534;51.994;5.692;2023-05-10T03:54:47;2.03;;;1.85;;
22733;SDS011;11534;51.994;5.692;2023-05-10T03:57:13;1.98;;;1.88;;
22733;SDS011;11534;51.994;5.692;2023-05-10T03:59:38;1.30;;;1.20;;
22733;SDS011;11534;51.994;5.692;2023-05-10T04:02:04;1.30;;;1.23;;
22733;SDS011;11534;51.994;5.692;2023-05-10T04:04:30;1.20;;;1.10;;
22733;SDS011;11534;51.994;5.692;2023-05-10T04:06:56;1.40;;;1.30;;
22733;SDS011;11534;51.994;5.692;2023-05-10T04:09:21;1.98;;;1.83;;
22733;SDS011;11534;51.994;5.692;2023-05-10T04:11:47;1.90;;;1.70;;
22733;SDS011;11534;51.994;5.692;2023-05-10T04:14:13;1.65;;;1.55;;
22733;SDS011;11534;51.994;5.692;2023-05-10T04:16:38;2.78;;;1.77;;
22733;SDS011;11534;51.994;5.692;2023-05-10T04:19:04;2.38;;;2.00;;
22733;SDS011;11534;51.994;5.692;2023-05-10T04:21:29;2.03;;;1.92;;
22733;SDS011;11534;51.994;5.692;2023-05-10T04:23:55;1.80;;;1.70;;
22733;SDS011;11534;51.994;5.692;2023-05-10T04:26:21;1.38;;;1.27;;
22733;SDS011;11534;51.994;5.692;2023-05-10T04:28:47;1.90;;;1.77;;
22733;SDS011;11534;51.994;5.692;2023-05-10T04:31:12;1.55;;;1.45;;
22733;SDS011;11534;51.994;5.692;2023-05-10T04:33:38;1.10;;;1.08;;
22733;SDS011;11534;51.994;5.692;2023-05-10T04:36:04;1.75;;;1.65;;
22733;SDS011;11534;51.994;5.692;2023-05-10T04:38:30;1.10;;;1.00;;
22733;SDS011;11534;51.994;5.692;2023-05-10T04:41:06;1.42;;;1.33;;
22733;SDS011;11534;51.994;5.692;2023-05-10T04:43:32;1.30;;;1.20;;
22733;SDS011;11534;51.994;5.692;2023-05-10T04:45:58;1.15;;;0.93;;
22733;SDS011;11534;51.994;5.692;2023-05-10T04:48:24;1.70;;;1.60;;
22733;SDS011;11534;51.994;5.692;2023-05-10T04:50:49;1.77;;;1.40;;
22733;SDS011;11534;51.994;5.692;2023-05-10T04:53:15;1.30;;;1.20;;
22733;SDS011;11534;51.994;5.692;2023-05-10T04:55:41;1.13;;;1.02;;
22733;SDS011;11534;51.994;5.692;2023-05-10T04:58:06;1.15;;;1.08;;
22733;SDS011;11534;51.994;5.692;2023-05-10T05:00:32;1.38;;;1.27;;
22733;SDS011;11534;51.994;5.692;2023-05-10T05:02:58;1.95;;;1.85;;
22733;SDS011;11534;51.994;5.692;2023-05-10T05:05:24;1.13;;;1.02;;
22733;SDS011;11534;51.994;5.692;2023-05-10T05:07:50;1.52;;;1.42;;
22733;SDS011;11534;51.994;5.692;2023-05-10T05:10:16;1.45;;;1.35;;
22733;SDS011;11534;51.994;5.692;2023-05-10T05:12:41;1.77;;;1.67;;
22733;SDS011;11534;51.994;5.692;2023-05-10T05:15:07;1.13;;;1.02;;
22733;SDS011;11534;51.994;5.692;2023-05-10T05:17:36;2.75;;;2.53;;
22733;SDS011;11534;51.994;5.692;2023-05-10T05:20:02;1.63;;;1.52;;
22733;SDS011;11534;51.994;5.692;2023-05-10T05:22:28;1.30;;;1.20;;
22733;SDS011;11534;51.994;5.692;2023-05-10T05:24:54;2.00;;;1.90;;
22733;SDS011;11534;51.994;5.692;2023-05-10T05:27:21;1.23;;;1.17;;
22733;SDS011;11534;51.994;5.692;2023-05-10T05:29:49;1.95;;;1.77;;
22733;SDS011;11534;51.994;5.692;2023-05-10T05:32:16;0.80;;;0.70;;
22733;SDS011;11534;51.994;5.692;2023-05-10T05:34:41;1.02;;;1.02;;
22733;SDS011;11534;51.994;5.692;2023-05-10T05:37:12;1.60;;;1.40;;
22733;SDS011;11534;51.994;5.692;2023-05-10T05:39:42;1.35;;;1.00;;
22733;SDS011;11534;51.994;5.692;2023-05-10T05:42:08;1.23;;;1.17;;
22733;SDS011;11534;51.994;5.692;2023-05-10T05:44:34;1.63;;;1.52;;
22733;SDS011;11534;51.994;5.692;2023-05-10T05:47:00;1.45;;;1.35;;
22733;SDS011;11534;51.994;5.692;2023-05-10T05:49:26;2.78;;;2.58;;
22733;SDS011;11534;51.994;5.692;2023-05-10T05:51:51;2.50;;;2.30;;
22733;SDS011;11534;51.994;5.692;2023-05-10T05:54:17;2.40;;;1.77;;
22733;SDS011;11534;51.994;5.692;2023-05-10T05:56:43;1.35;;;1.13;;
22733;SDS011;11534;51.994;5.692;2023-05-10T05:59:09;2.17;;;1.92;;
22733;SDS011;11534;51.994;5.692;2023-05-10T06:01:35;1.20;;;1.10;;
22733;SDS011;11534;51.994;5.692;2023-05-10T06:04:01;1.13;;;1.02;;
22733;SDS011;11534;51.994;5.692;2023-05-10T06:06:27;1.80;;;1.38;;
22733;SDS011;11534;51.994;5.692;2023-05-10T06:08:52;2.08;;;1.88;;
22733;SDS011;11534;51.994;5.692;2023-05-10T06:11:18;1.55;;;1.45;;
22733;SDS011;11534;51.994;5.692;2023-05-10T06:13:45;1.83;;;1.65;;
22733;SDS011;11534;51.994;5.692;2023-05-10T06:16:12;1.30;;;1.23;;
22733;SDS011;11534;51.994;5.692;2023-05-10T06:18:38;1.02;;;1.02;;
22733;SDS011;11534;51.994;5.692;2023-05-10T06:21:04;1.15;;;1.00;;
22733;SDS011;11534;51.994;5.692;2023-05-10T06:23:29;1.25;;;1.15;;
22733;SDS011;11534;51.994;5.692;2023-05-10T06:25:55;0.90;;;0.82;;
22733;SDS011;11534;51.994;5.692;2023-05-10T06:28:21;2.88;;;2.67;;
22733;SDS011;11534;51.994;5.692;2023-05-10T06:30:46;1.40;;;1.30;;
22733;SDS011;11534;51.994;5.692;2023-05-10T06:33:12;1.35;;;1.20;;
22733;SDS011;11534;51.994;5.692;2023-05-10T06:35:38;1.60;;;1.50;;
22733;SDS011;11534;51.994;5.692;2023-05-10T06:38:04;1.55;;;1.45;;
22733;SDS011;11534;51.994;5.692;2023-05-10T06:40:29;1.52;;;1.42;;
22733;SDS011;11534;51.994;5.692;2023-05-10T06:42:55;2.17;;;1.98;;
22733;SDS011;11534;51.994;5.692;2023-05-10T06:45:21;1.40;;;1.30;;
22733;SDS011;11534;51.994;5.692;2023-05-10T06:47:46;2.67;;;2.47;;
22733;SDS011;11534;51.994;5.692;2023-05-10T06:50:12;2.33;;;2.22;;
22733;SDS011;11534;51.994;5.692;2023-05-10T06:52:38;1.45;;;1.35;;
22733;SDS011;11534;51.994;5.692;2023-05-10T06:55:04;1.80;;;1.70;;
22733;SDS011;11534;51.994;5.692;2023-05-10T06:57:30;1.63;;;1.52;;
22733;SDS011;11534;51.994;5.692;2023-05-10T06:59:56;1.45;;;1.25;;
22733;SDS011;11534;51.994;5.692;2023-05-10T07:02:23;2.05;;;1.60;;
22733;SDS011;11534;51.994;5.692;2023-05-10T07:04:48;1.98;;;1.88;;
22733;SDS011;11534;51.994;5.692;2023-05-10T07:07:16;1.70;;;1.60;;
22733;SDS011;11534;51.994;5.692;2023-05-10T07:09:41;1.50;;;1.40;;
22733;SDS011;11534;51.994;5.692;2023-05-10T07:12:07;1.40;;;1.30;;
22733;SDS011;11534;51.994;5.692;2023-05-10T07:14:33;1.90;;;1.80;;
22733;SDS011;11534;51.994;5.692;2023-05-10T07:16:58;1.73;;;1.63;;
22733;SDS011;11534;51.994;5.692;2023-05-10T07:19:24;0.95;;;0.95;;
22733;SDS011;11534;51.994;5.692;2023-05-10T07:21:49;1.40;;;1.30;;
22733;SDS011;11534;51.994;5.692;2023-05-10T07:24:15;1.45;;;1.35;;
22733;SDS011;11534;51.994;5.692;2023-05-10T07:26:41;1.55;;;1.45;;
22733;SDS011;11534;51.994;5.692;2023-05-10T07:29:07;1.75;;;1.65;;
22733;SDS011;11534;51.994;5.692;2023-05-10T07:31:32;2.17;;;2.05;;
22733;SDS011;11534;51.994;5.692;2023-05-10T07:33:58;1.45;;;1.35;;
22733;SDS011;11534;51.994;5.692;2023-05-10T07:36:23;2.00;;;1.90;;
22733;SDS011;11534;51.994;5.692;2023-05-10T07:38:49;2.33;;;2.13;;
22733;SDS011;11534;51.994;5.692;2023-05-10T07:41:15;1.90;;;1.80;;
22733;SDS011;11534;51.994;5.692;2023-05-10T07:43:40;1.80;;;1.70;;
22733;SDS011;11534;51.994;5.692;2023-05-10T07:46:06;1.30;;;1.20;;
22733;SDS011;11534;51.994;5.692;2023-05-10T07:48:32;2.08;;;1.98;;
22733;SDS011;11534;51.994;5.692;2023-05-10T07:50:58;1.63;;;1.52;;
22733;SDS011;11534;51.994;5.692;2023-05-10T07:53:25;1.67;;;1.58;;
22733;SDS011;11534;51.994;5.692;2023-05-10T07:55:57;2.25;;;2.05;;
22733;SDS011;11534;51.994;5.692;2023-05-10T07:58:23;3.35;;;1.30;;
22733;SDS011;11534;51.994;5.692;2023-05-10T08:00:50;1.52;;;1.42;;
22733;SDS011;11534;51.994;5.692;2023-05-10T08:03:15;1.63;;;1.52;;
22733;SDS011;11534;51.994;5.692;2023-05-10T08:05:41;1.45;;;1.35;;
22733;SDS011;11534;51.994;5.692;2023-05-10T08:08:07;0.68;;;0.68;;
22733;SDS011;11534;51.994;5.692;2023-05-10T08:10:32;2.00;;;1.17;;
22733;SDS011;11534;51.994;5.692;2023-05-10T08:12:58;1.38;;;1.23;;
22733;SDS011;11534;51.994;5.692;2023-05-10T08:15:24;0.85;;;0.85;;
22733;SDS011;11534;51.994;5.692;2023-05-10T08:17:51;1.10;;;1.00;;
22733;SDS011;11534;51.994;5.692;2023-05-10T08:20:17;1.10;;;1.00;;
22733;SDS011;11534;51.994;5.692;2023-05-10T08:22:44;0.55;;;0.55;;
22733;SDS011;11534;51.994;5.692;2023-05-10T08:25:10;0.50;;;0.50;;
22733;SDS011;11534;51.994;5.692;2023-05-10T08:27:36;0.60;;;0.60;;
22733;SDS011;11534;51.994;5.692;2023-05-10T08:30:02;1.58;;;1.35;;
22733;SDS011;11534;51.994;5.692;2023-05-10T08:32:27;0.60;;;0.60;;
22733;SDS011;11534;51.994;5.692;2023-05-10T08:34:53;1.48;;;0.98;;
22733;SDS011;11534;51.994;5.692;2023-05-10T08:37:20;0.40;;;0.40;;
22733;SDS011;11534;51.994;5.692;2023-05-10T08:39:47;0.70;;;0.70;;
22733;SDS011;11534;51.994;5.692;2023-05-10T08:42:13;0.50;;;0.50;;
22733;SDS011;11534;51.994;5.692;2023-05-10T08:44:44;0.63;;;0.63;;
22733;SDS011;11534;51.994;5.692;2023-05-10T08:47:11;0.70;;;0.52;;
22733;SDS011;11534;51.994;5.692;2023-05-10T08:49:40;0.65;;;0.65;;
22733;SDS011;11534;51.994;5.692;2023-05-10T08:52:07;0.40;;;0.40;;
22733;SDS011;11534;51.994;5.692;2023-05-10T08:54:34;0.60;;;0.60;;
22733;SDS011;11534;51.994;5.692;2023-05-10T08:57:01;0.73;;;0.73;;
22733;SDS011;11534;51.994;5.692;2023-05-10T08:59:27;0.40;;;0.40;;
22733;SDS011;11534;51.994;5.692;2023-05-10T09:01:53;0.35;;;0.35;;
22733;SDS011;11534;51.994;5.692;2023-05-10T09:04:20;0.65;;;0.65;;
22733;SDS011;11534;51.994;5.692;2023-05-10T09:06:46;0.50;;;0.50;;
22733;SDS011;11534;51.994;5.692;2023-05-10T09:09:12;0.47;;;0.47;;
22733;SDS011;11534;51.994;5.692;2023-05-10T09:11:38;0.75;;;0.75;;
22733;SDS011;11534;51.994;5.692;2023-05-10T09:14:04;0.75;;;0.70;;
22733;SDS011;11534;51.994;5.692;2023-05-10T09:16:29;0.35;;;0.35;;
22733;SDS011;11534;51.994;5.692;2023-05-10T09:18:55;0.60;;;0.60;;
22733;SDS011;11534;51.994;5.692;2023-05-10T09:21:21;1.30;;;0.60;;
22733;SDS011;11534;51.994;5.692;2023-05-10T09:23:47;0.68;;;0.60;;
22733;SDS011;11534;51.994;5.692;2023-05-10T09:26:14;0.77;;;0.55;;
22733;SDS011;11534;51.994;5.692;2023-05-10T09:31:15;0.38;;;0.38;;
22733;SDS011;11534;51.994;5.692;2023-05-10T09:33:45;0.60;;;0.60;;
22733;SDS011;11534;51.994;5.692;2023-05-10T09:36:12;1.63;;;1.50;;
22733;SDS011;11534;51.994;5.692;2023-05-10T09:38:44;0.68;;;0.52;;
22733;SDS011;11534;51.994;5.692;2023-05-10T09:41:18;0.57;;;0.57;;
22733;SDS011;11534;51.994;5.692;2023-05-10T09:43:47;0.57;;;0.55;;
22733;SDS011;11534;51.994;5.692;2023-05-10T09:46:14;1.25;;;0.75;;
22733;SDS011;11534;51.994;5.692;2023-05-10T09:48:42;0.82;;;0.82;;
22733;SDS011;11534;51.994;5.692;2023-05-10T09:51:09;0.60;;;0.60;;
22733;SDS011;11534;51.994;5.692;2023-05-10T09:53:35;1.13;;;1.00;;
22733;SDS011;11534;51.994;5.692;2023-05-10T09:56:00;1.05;;;1.02;;
22733;SDS011;11534;51.994;5.692;2023-05-10T09:58:26;0.68;;;0.68;;
22733;SDS011;11534;51.994;5.692;2023-05-10T10:00:52;0.70;;;0.70;;
22733;SDS011;11534;51.994;5.692;2023-05-10T10:03:21;0.60;;;0.60;;
22733;SDS011;11534;51.994;5.692;2023-05-10T10:05:48;0.80;;;0.68;;
22733;SDS011;11534;51.994;5.692;2023-05-10T10:08:15;0.80;;;0.80;;
22733;SDS011;11534;51.994;5.692;2023-05-10T10:10:41;0.40;;;0.40;;
22733;SDS011;11534;51.994;5.692;2023-05-10T10:13:09;1.35;;;0.88;;
22733;SDS011;11534;51.994;5.692;2023-05-10T10:15:34;0.65;;;0.65;;
22733;SDS011;11534;51.994;5.692;2023-05-10T10:18:00;1.20;;;1.10;;
22733;SDS011;11534;51.994;5.692;2023-05-10T10:20:26;0.57;;;0.57;;
22733;SDS011;11534;51.994;5.692;2023-05-10T10:22:52;1.17;;;0.65;;
22733;SDS011;11534;51.994;5.692;2023-05-10T10:25:19;0.93;;;0.93;;
22733;SDS011;11534;51.994;5.692;2023-05-10T10:30:27;0.95;;;0.80;;
22733;SDS011;11534;51.994;5.692;2023-05-10T10:35:32;0.55;;;0.55;;
22733;SDS011;11534;51.994;5.692;2023-05-10T10:37:59;1.08;;;0.70;;
22733;SDS011;11534;51.994;5.692;2023-05-10T10:40:29;1.13;;;0.75;;
22733;SDS011;11534;51.994;5.692;2023-05-10T10:42:56;0.65;;;0.60;;
22733;SDS011;11534;51.994;5.692;2023-05-10T10:45:23;0.80;;;0.80;;
22733;SDS011;11534;51.994;5.692;2023-05-10T10:50:47;1.20;;;1.10;;
22733;SDS011;11534;51.994;5.692;2023-05-10T10:53:20;0.85;;;0.57;;
22733;SDS011;11534;51.994;5.692;2023-05-10T10:55:47;0.93;;;0.90;;
22733;SDS011;11534;51.994;5.692;2023-05-10T10:58:28;0.75;;;0.60;;
22733;SDS011;11534;51.994;5.692;2023-05-10T11:01:14;0.50;;;0.50;;
22733;SDS011;11534;51.994;5.692;2023-05-10T11:09:00;1.00;;;1.00;;
22733;SDS011;11534;51.994;5.692;2023-05-10T11:11:34;0.68;;;0.68;;
22733;SDS011;11534;51.994;5.692;2023-05-10T11:14:04;0.77;;;0.77;;
22733;SDS011;11534;51.994;5.692;2023-05-10T11:16:41;0.95;;;0.90;;
22733;SDS011;11534;51.994;5.692;2023-05-10T11:19:12;0.77;;;0.60;;
22733;SDS011;11534;51.994;5.692;2023-05-10T11:21:49;1.00;;;0.63;;
22733;SDS011;11534;51.994;5.692;2023-05-10T11:24:17;1.08;;;0.75;;
22733;SDS011;11534;51.994;5.692;2023-05-10T11:26:50;1.08;;;1.00;;
22733;SDS011;11534;51.994;5.692;2023-05-10T11:29:17;0.75;;;0.75;;
22733;SDS011;11534;51.994;5.692;2023-05-10T11:31:46;0.50;;;0.50;;
22733;SDS011;11534;51.994;5.692;2023-05-10T11:34:28;0.82;;;0.82;;
22733;SDS011;11534;51.994;5.692;2023-05-10T11:36:56;0.63;;;0.63;;
22733;SDS011;11534;51.994;5.692;2023-05-10T11:39:26;0.65;;;0.65;;
22733;SDS011;11534;51.994;5.692;2023-05-10T11:41:56;0.60;;;0.60;;
22733;SDS011;11534;51.994;5.692;2023-05-10T11:44:23;0.40;;;0.40;;
22733;SDS011;11534;51.994;5.692;2023-05-10T11:46:53;1.05;;;0.75;;
22733;SDS011;11534;51.994;5.692;2023-05-10T11:49:19;0.90;;;0.75;;
22733;SDS011;11534;51.994;5.692;2023-05-10T11:51:48;1.25;;;1.00;;
22733;SDS011;11534;51.994;5.692;2023-05-10T11:54:14;0.65;;;0.65;;
22733;SDS011;11534;51.994;5.692;2023-05-10T11:56:39;0.43;;;0.43;;
22733;SDS011;11534;51.994;5.692;2023-05-10T11:59:05;0.80;;;0.63;;
22733;SDS011;11534;51.994;5.692;2023-05-10T12:01:32;0.35;;;0.35;;
22733;SDS011;11534;51.994;5.692;2023-05-10T12:03:59;1.48;;;1.27;;
22733;SDS011;11534;51.994;5.692;2023-05-10T12:06:29;1.05;;;0.95;;
22733;SDS011;11534;51.994;5.692;2023-05-10T12:09:05;0.52;;;0.52;;
22733;SDS011;11534;51.994;5.692;2023-05-10T12:11:35;1.27;;;1.17;;
22733;SDS011;11534;51.994;5.692;2023-05-10T12:14:03;0.80;;;0.80;;
22733;SDS011;11534;51.994;5.692;2023-05-10T12:16:30;0.88;;;0.82;;
22733;SDS011;11534;51.994;5.692;2023-05-10T12:18:56;0.93;;;0.82;;
22733;SDS011;11534;51.994;5.692;2023-05-10T12:21:23;0.40;;;0.40;;
22733;SDS011;11534;51.994;5.692;2023-05-10T12:23:50;0.60;;;0.60;;
22733;SDS011;11534;51.994;5.692;2023-05-10T12:26:17;0.70;;;0.70;;
22733;SDS011;11534;51.994;5.692;2023-05-10T12:28:46;0.60;;;0.47;;
22733;SDS011;11534;51.994;5.692;2023-05-10T12:31:15;0.50;;;0.50;;
22733;SDS011;11534;51.994;5.692;2023-05-10T12:33:44;0.63;;;0.60;;
22733;SDS011;11534;51.994;5.692;2023-05-10T12:36:10;1.27;;;0.73;;
22733;SDS011;11534;51.994;5.692;2023-05-10T12:38:39;0.57;;;0.57;;
22733;SDS011;11534;51.994;5.692;2023-05-10T12:41:10;0.68;;;0.65;;
22733;SDS011;11534;51.994;5.692;2023-05-10T12:43:36;0.75;;;0.75;;
22733;SDS011;11534;51.994;5.692;2023-05-10T12:46:09;1.17;;;0.70;;
22733;SDS011;11534;51.994;5.692;2023-05-10T12:48:36;0.95;;;0.95;;
22733;SDS011;11534;51.994;5.692;2023-05-10T12:51:03;0.65;;;0.50;;
22733;SDS011;11534;51.994;5.692;2023-05-10T12:53:30;1.10;;;0.98;;
22733;SDS011;11534;51.994;5.692;2023-05-10T12:55:56;0.63;;;0.55;;
22733;SDS011;11534;51.994;5.692;2023-05-10T12:58:22;1.17;;;0.63;;
22733;SDS011;11534;51.994;5.692;2023-05-10T13:00:48;0.55;;;0.50;;
22733;SDS011;11534;51.994;5.692;2023-05-10T13:03:13;0.60;;;0.60;;
22733;SDS011;11534;51.994;5.692;2023-05-10T13:05:40;0.50;;;0.43;;
22733;SDS011;11534;51.994;5.692;2023-05-10T13:08:06;0.50;;;0.40;;
22733;SDS011;11534;51.994;5.692;2023-05-10T13:10:31;1.27;;;0.95;;
22733;SDS011;11534;51.994;5.692;2023-05-10T13:12:57;0.68;;;0.68;;
22733;SDS011;11534;51.994;5.692;2023-05-10T13:15:23;0.80;;;0.80;;
22733;SDS011;11534;51.994;5.692;2023-05-10T13:17:50;0.70;;;0.70;;
22733;SDS011;11534;51.994;5.692;2023-05-10T13:20:16;1.08;;;0.98;;
22733;SDS011;11534;51.994;5.692;2023-05-10T13:22:42;0.82;;;0.80;;
22733;SDS011;11534;51.994;5.692;2023-05-10T13:25:09;0.98;;;0.88;;
22733;SDS011;11534;51.994;5.692;2023-05-10T13:27:35;1.60;;;1.30;;
22733;SDS011;11534;51.994;5.692;2023-05-10T13:30:02;1.00;;;0.90;;
22733;SDS011;11534;51.994;5.692;2023-05-10T13:32:28;1.60;;;1.13;;
22733;SDS011;11534;51.994;5.692;2023-05-10T13:34:55;1.10;;;0.95;;
22733;SDS011;11534;51.994;5.692;2023-05-10T13:37:20;0.90;;;0.82;;
22733;SDS011;11534;51.994;5.692;2023-05-10T13:39:46;0.70;;;0.68;;
22733;SDS011;11534;51.994;5.692;2023-05-10T13:42:12;0.73;;;0.73;;
22733;SDS011;11534;51.994;5.692;2023-05-10T13:44:38;0.77;;;0.77;;
22733;SDS011;11534;51.994;5.692;2023-05-10T13:47:04;1.15;;;1.05;;
22733;SDS011;11534;51.994;5.692;2023-05-10T13:49:30;0.70;;;0.70;;
22733;SDS011;11534;51.994;5.692;2023-05-10T13:51:56;1.60;;;1.50;;
22733;SDS011;11534;51.994;5.692;2023-05-10T13:54:23;1.00;;;0.98;;
22733;SDS011;11534;51.994;5.692;2023-05-10T13:56:49;0.60;;;0.60;;
22733;SDS011;11534;51.994;5.692;2023-05-10T13:59:15;0.57;;;0.57;;
22733;SDS011;11534;51.994;5.692;2023-05-10T14:01:41;0.52;;;0.47;;
22733;SDS011;11534;51.994;5.692;2023-05-10T14:04:07;0.20;;;0.20;;
22733;SDS011;11534;51.994;5.692;2023-05-10T14:06:35;0.43;;;0.43;;
22733;SDS011;11534;51.994;5.692;2023-05-10T14:09:01;0.28;;;0.28;;
22733;SDS011;11534;51.994;5.692;2023-05-10T14:11:27;0.38;;;0.38;;
22733;SDS011;11534;51.994;5.692;2023-05-10T14:13:53;0.68;;;0.68;;
22733;SDS011;11534;51.994;5.692;2023-05-10T14:16:19;0.43;;;0.35;;
22733;SDS011;11534;51.994;5.692;2023-05-10T14:18:45;0.50;;;0.50;;
22733;SDS011;11534;51.994;5.692;2023-05-10T14:21:11;0.70;;;0.70;;
22733;SDS011;11534;51.994;5.692;2023-05-10T14:23:37;0.40;;;0.40;;
22733;SDS011;11534;51.994;5.692;2023-05-10T14:26:02;0.50;;;0.50;;
22733;SDS011;11534;51.994;5.692;2023-05-10T14:28:28;0.35;;;0.35;;
22733;SDS011;11534;51.994;5.692;2023-05-10T14:30:54;0.30;;;0.30;;
22733;SDS011;11534;51.994;5.692;2023-05-10T14:33:19;0.70;;;0.70;;
22733;SDS011;11534;51.994;5.692;2023-05-10T14:35:45;0.50;;;0.50;;
22733;SDS011;11534;51.994;5.692;2023-05-10T14:38:11;0.20;;;0.20;;
22733;SDS011;11534;51.994;5.692;2023-05-10T14:40:37;0.70;;;0.70;;
22733;SDS011;11534;51.994;5.692;2023-05-10T14:43:03;0.50;;;0.50;;
22733;SDS011;11534;51.994;5.692;2023-05-10T14:45:29;0.40;;;0.40;;
22733;SDS011;11534;51.994;5.692;2023-05-10T14:47:54;0.30;;;0.30;;
22733;SDS011;11534;51.994;5.692;2023-05-10T14:50:20;0.57;;;0.57;;
22733;SDS011;11534;51.994;5.692;2023-05-10T14:52:46;0.30;;;0.30;;
22733;SDS011;11534;51.994;5.692;2023-05-10T14:55:11;0.40;;;0.40;;
22733;SDS011;11534;51.994;5.692;2023-05-10T14:57:37;0.20;;;0.20;;
22733;SDS011;11534;51.994;5.692;2023-05-10T15:00:03;0.50;;;0.50;;
22733;SDS011;11534;51.994;5.692;2023-05-10T15:02:30;0.50;;;0.50;;
22733;SDS011;11534;51.994;5.692;2023-05-10T15:04:56;0.50;;;0.50;;
22733;SDS011;11534;51.994;5.692;2023-05-10T15:07:22;0.45;;;0.45;;
22733;SDS011;11534;51.994;5.692;2023-05-10T15:09:48;1.23;;;1.13;;
22733;SDS011;11534;51.994;5.692;2023-05-10T15:12:15;0.38;;;0.38;;
22733;SDS011;11534;51.994;5.692;2023-05-10T15:14:40;0.55;;;0.45;;
22733;SDS011;11534;51.994;5.692;2023-05-10T15:17:06;0.70;;;0.50;;
22733;SDS011;11534;51.994;5.692;2023-05-10T15:19:32;0.50;;;0.50;;
22733;SDS011;11534;51.994;5.692;2023-05-10T15:21:58;0.70;;;0.63;;